createdAt,value
2018-09-29T00:01:28.980Z,63.87
2018-09-29T00:03:58.783Z,64.59
2018-09-29T00:06:28.596Z,65.25
2018-09-29T00:08:58.410Z,65.71
2018-09-29T00:11:28.244Z,66.74
2018-09-29T00:13:58.014Z,67.21
2018-09-29T00:16:27.831Z,68.01
2018-09-29T00:18:57.858Z,68.12
2018-09-29T00:21:27.715Z,68.22
2018-09-29T00:23:57.750Z,68.47
2018-09-29T00:26:27.620Z,68.57
2018-09-29T00:28:57.391Z,68.61
2018-09-29T00:31:27.163Z,68.95
2018-09-29T00:33:57.116Z,68.90
2018-09-29T00:36:26.920Z,68.81
2018-09-29T00:38:56.755Z,68.77
2018-09-29T00:41:26.713Z,69.77
2018-09-29T00:43:56.511Z,69.43
2018-09-29T00:46:26.343Z,70.32
2018-09-29T00:48:56.620Z,70.01
2018-09-29T00:51:26.466Z,69.94
2018-09-29T00:53:56.284Z,70.44
2018-09-29T00:57:17.486Z,70.99
2018-09-29T00:59:47.341Z,71.51
2018-09-29T01:02:17.175Z,71.71
2018-09-29T01:04:47.004Z,72.58
2018-09-29T01:07:16.877Z,72.48
2018-09-29T01:09:46.899Z,72.40
2018-09-29T01:12:16.763Z,72.70
2018-09-29T01:14:46.627Z,73.05
2018-09-29T01:17:16.444Z,73.42
2018-09-29T01:19:46.610Z,73.00
2018-09-29T01:22:16.427Z,73.24
2018-09-29T01:24:46.219Z,73.11
2018-09-29T01:27:16.013Z,73.55
2018-09-29T01:29:45.773Z,73.91
2018-09-29T01:32:15.652Z,73.94
2018-09-29T01:34:45.451Z,74.64
2018-09-29T01:37:15.219Z,74.89
2018-09-29T01:39:45.061Z,74.86
2018-09-29T01:42:14.874Z,75.19
2018-09-29T01:44:44.739Z,75.49
2018-09-29T01:47:14.581Z,75.79
2018-09-29T01:49:44.462Z,75.82
2018-09-29T01:52:14.338Z,76.30
2018-09-29T01:54:45.070Z,76.38
2018-09-29T01:57:14.878Z,76.33
2018-09-29T01:59:44.679Z,76.31
2018-09-29T02:02:14.500Z,76.15
2018-09-29T02:04:44.335Z,76.14
2018-09-29T02:10:50.074Z,76.96
2018-09-29T02:13:19.841Z,76.96
2018-09-29T02:15:49.681Z,76.93
2018-09-29T02:18:19.603Z,77.12
2018-09-29T02:20:49.458Z,76.59
2018-09-29T02:23:19.311Z,76.57
2018-09-29T02:25:49.713Z,76.08
2018-09-29T02:28:19.597Z,76.32
2018-09-29T02:30:49.401Z,76.07
2018-09-29T02:33:19.293Z,75.90
2018-09-29T02:35:49.493Z,76.22
2018-09-29T02:38:19.349Z,75.67
2018-09-29T02:40:49.821Z,76.42
2018-09-29T02:43:19.827Z,75.96
2018-09-29T02:45:49.659Z,75.94
2018-09-29T02:48:19.523Z,76.04
2018-09-29T02:50:49.352Z,76.21
2018-09-29T02:53:19.187Z,75.79
2018-09-29T02:55:49.138Z,76.08
2018-09-29T02:58:18.976Z,76.02
2018-09-29T03:00:48.779Z,76.05
2018-09-29T03:03:18.588Z,75.96
2018-09-29T03:05:48.399Z,75.78
2018-09-29T03:08:18.211Z,76.06
2018-09-29T03:10:48.030Z,75.73
2018-09-29T03:13:17.831Z,75.87
2018-09-29T03:15:47.764Z,76.21
2018-09-29T03:18:17.604Z,75.99
2018-09-29T03:20:47.448Z,75.87
2018-09-29T03:23:17.353Z,75.94
2018-09-29T03:25:47.310Z,75.70
2018-09-29T03:28:17.189Z,76.34
2018-09-29T03:30:47.192Z,76.38
2018-09-29T03:33:17.008Z,75.84
2018-09-29T03:35:46.832Z,75.84
2018-09-29T03:38:16.859Z,75.78
2018-09-29T03:40:46.652Z,76.32
2018-09-29T03:43:16.902Z,76.28
2018-09-29T03:45:46.716Z,76.05
2018-09-29T03:48:16.578Z,76.48
2018-09-29T03:50:46.430Z,76.31
2018-09-29T03:53:16.273Z,76.50
2018-09-29T03:55:46.199Z,76.66
2018-09-29T03:58:16.082Z,76.40
2018-09-29T04:00:46.132Z,76.14
2018-09-29T04:03:15.956Z,76.62
2018-09-29T04:05:45.794Z,76.35
2018-09-29T04:08:15.626Z,76.21
2018-09-29T04:10:45.465Z,75.82
2018-09-29T04:13:15.418Z,75.94
2018-09-29T04:15:45.394Z,76.24
2018-09-29T04:18:15.308Z,75.29
2018-09-29T04:20:45.160Z,74.60
2018-09-29T04:23:15.078Z,74.39
2018-09-29T04:25:45.182Z,73.98
2018-09-29T04:28:15.042Z,74.15
2018-09-29T04:30:44.866Z,73.73
2018-09-29T04:33:14.708Z,73.79
2018-09-29T04:35:44.508Z,73.43
2018-09-29T04:38:14.414Z,73.61
2018-09-29T04:40:44.257Z,73.72
2018-09-29T04:43:14.120Z,72.69
2018-09-29T04:45:44.122Z,72.99
2018-09-29T04:48:13.963Z,73.10
2018-09-29T04:50:43.827Z,73.11
2018-09-29T04:53:13.968Z,73.28
2018-09-29T04:55:43.839Z,73.15
2018-09-29T04:58:13.738Z,72.47
2018-09-29T05:00:43.614Z,72.48
2018-09-29T05:03:13.393Z,72.54
2018-09-29T05:05:43.295Z,72.81
2018-09-29T05:08:13.099Z,72.05
2018-09-29T05:10:43.023Z,72.10
2018-09-29T05:13:12.830Z,72.67
2018-09-29T05:15:42.766Z,72.35
2018-09-29T05:18:12.626Z,72.41
2018-09-29T05:20:42.501Z,72.54
2018-09-29T05:23:12.916Z,72.31
2018-09-29T05:25:43.271Z,72.30
2018-09-29T05:28:13.111Z,72.58
2018-09-29T05:30:42.967Z,72.45
2018-09-29T05:33:12.993Z,71.97
2018-09-29T05:35:42.955Z,72.08
2018-09-29T05:38:12.838Z,72.31
2018-09-29T05:40:42.709Z,71.73
2018-09-29T05:43:12.567Z,71.97
2018-09-29T05:45:42.433Z,71.85
2018-09-29T05:48:12.422Z,72.12
2018-09-29T05:50:42.435Z,71.79
2018-09-29T05:53:12.251Z,72.28
2018-09-29T05:55:42.063Z,71.88
2018-09-29T05:58:11.965Z,71.90
2018-09-29T06:00:42.200Z,71.93
2018-09-29T06:03:12.130Z,71.96
2018-09-29T06:05:41.981Z,72.25
2018-09-29T06:08:11.944Z,72.06
2018-09-29T06:10:41.912Z,71.74
2018-09-29T06:13:11.777Z,71.95
2018-09-29T06:15:41.817Z,71.75
2018-09-29T06:18:11.705Z,71.43
2018-09-29T06:20:41.534Z,72.34
2018-09-29T06:23:11.462Z,71.83
2018-09-29T06:25:41.290Z,71.98
2018-09-29T06:28:11.199Z,72.21
2018-09-29T06:30:41.042Z,71.89
2018-09-29T06:33:10.889Z,72.14
2018-09-29T06:35:40.739Z,71.77
2018-09-29T06:38:10.629Z,71.30
2018-09-29T06:40:40.602Z,71.32
2018-09-29T06:43:10.574Z,71.53
2018-09-29T06:45:40.574Z,71.51
2018-09-29T06:48:10.466Z,71.17
2018-09-29T06:50:40.584Z,71.25
2018-09-29T06:53:10.428Z,70.93
2018-09-29T06:55:40.240Z,70.72
2018-09-29T06:58:10.240Z,70.76
2018-09-29T07:00:40.108Z,70.67
2018-09-29T07:03:10.048Z,70.59
2018-09-29T07:05:39.962Z,70.72
2018-09-29T07:08:09.806Z,70.26
2018-09-29T07:10:39.734Z,70.55
2018-09-29T07:13:09.584Z,70.61
2018-09-29T07:15:39.422Z,70.71
2018-09-29T07:18:09.240Z,70.15
2018-09-29T07:20:39.102Z,70.17
2018-09-29T07:23:09.174Z,70.58
2018-09-29T07:25:39.122Z,70.27
2018-09-29T07:28:09.485Z,70.58
2018-09-29T07:30:39.398Z,70.90
2018-09-29T07:33:09.506Z,70.49
2018-09-29T07:35:39.348Z,70.64
2018-09-29T07:38:09.233Z,70.66
2018-09-29T07:40:39.060Z,70.10
2018-09-29T07:43:09.268Z,70.55
2018-09-29T07:45:39.115Z,69.37
2018-09-29T07:48:08.951Z,68.87
2018-09-29T07:50:38.824Z,69.13
2018-09-29T07:53:08.742Z,69.05
2018-09-29T07:55:38.714Z,68.25
2018-09-29T07:58:08.728Z,68.68
2018-09-29T08:00:38.624Z,68.54
2018-09-29T08:03:08.643Z,68.36
2018-09-29T08:05:38.547Z,67.88
2018-09-29T08:08:08.335Z,68.42
2018-09-29T08:10:38.173Z,67.87
2018-09-29T08:13:08.364Z,67.61
2018-09-29T08:15:38.330Z,67.20
2018-09-29T08:18:08.167Z,67.19
2018-09-29T08:20:38.040Z,67.49
2018-09-29T08:23:08.274Z,67.75
2018-09-29T08:25:38.118Z,67.76
2018-09-29T08:28:08.220Z,67.94
2018-09-29T08:30:38.104Z,66.53
2018-09-29T08:33:08.139Z,66.87
2018-09-29T08:35:38.014Z,66.85
2018-09-29T08:38:07.905Z,67.02
2018-09-29T08:40:37.796Z,67.08
2018-09-29T08:43:07.858Z,66.93
2018-09-29T08:45:37.688Z,66.18
2018-09-29T08:48:07.708Z,67.07
2018-09-29T08:50:37.579Z,66.47
2018-09-29T08:53:07.489Z,66.47
2018-09-29T08:55:37.809Z,65.53
2018-09-29T08:58:07.839Z,65.86
2018-09-29T09:00:37.672Z,65.94
2018-09-29T09:03:07.596Z,65.57
2018-09-29T09:05:37.365Z,66.09
2018-09-29T09:08:07.206Z,65.14
2018-09-29T09:10:37.018Z,65.15
2018-09-29T09:13:07.196Z,65.22
2018-09-29T09:15:37.106Z,64.00
2018-09-29T09:18:06.911Z,64.17
2018-09-29T09:20:36.700Z,64.42
2018-09-29T09:23:06.730Z,63.63
2018-09-29T09:25:36.845Z,63.82
2018-09-29T09:28:06.660Z,64.35
2018-09-29T09:30:36.517Z,63.88
2018-09-29T09:33:06.368Z,63.39
2018-09-29T09:35:36.179Z,63.94
2018-09-29T09:38:06.431Z,62.78
2018-09-29T09:40:36.228Z,62.83
2018-09-29T09:43:06.134Z,62.65
2018-09-29T09:45:35.980Z,62.16
2018-09-29T09:48:05.933Z,62.68
2018-09-29T09:50:36.045Z,61.87
2018-09-29T09:53:05.884Z,62.00
2018-09-29T09:55:35.711Z,60.67
2018-09-29T09:58:05.467Z,61.06
2018-09-29T10:00:40.545Z,60.25
2018-09-29T10:03:15.341Z,60.20
2018-09-29T10:05:45.129Z,59.58
2018-09-29T10:08:14.973Z,59.29
2018-09-29T10:10:44.766Z,59.07
2018-09-29T10:13:14.725Z,58.94
2018-09-29T10:15:44.505Z,58.29
2018-09-29T10:18:14.321Z,58.10
2018-09-29T10:20:44.138Z,58.72
2018-09-29T10:23:13.899Z,58.40
2018-09-29T10:25:43.935Z,57.91
2018-09-29T10:28:13.781Z,58.47
2018-09-29T10:30:43.574Z,58.57
2018-09-29T10:33:13.571Z,57.62
2018-09-29T10:35:43.417Z,57.62
2018-09-29T10:38:13.270Z,56.83
2018-09-29T10:40:43.003Z,57.20
2018-09-29T10:43:12.952Z,57.09
2018-09-29T10:45:42.745Z,56.90
2018-09-29T10:48:12.611Z,56.42
2018-09-29T10:50:42.436Z,56.79
2018-09-29T10:53:12.243Z,56.12
2018-09-29T10:55:42.071Z,56.08
2018-09-29T10:58:12.560Z,56.36
2018-09-29T11:00:42.526Z,56.50
2018-09-29T11:03:12.330Z,56.60
2018-09-29T11:05:42.164Z,55.75
2018-09-29T11:08:12.019Z,56.50
2018-09-29T11:10:42.061Z,56.23
2018-09-29T11:13:12.121Z,56.11
2018-09-29T11:15:41.987Z,55.60
2018-09-29T11:18:12.319Z,56.10
2018-09-29T11:20:42.111Z,56.42
2018-09-29T11:23:12.190Z,56.88
2018-09-29T11:25:41.955Z,56.61
2018-09-29T11:28:11.865Z,56.33
2018-09-29T11:30:41.879Z,56.63
2018-09-29T11:33:11.666Z,56.19
2018-09-29T11:35:41.546Z,57.32
2018-09-29T11:38:11.356Z,56.98
2018-09-29T11:40:41.208Z,56.77
2018-09-29T11:43:11.127Z,56.34
2018-09-29T11:45:41.265Z,57.14
2018-09-29T11:48:11.050Z,56.47
2018-09-29T11:50:41.265Z,56.99
2018-09-29T11:53:11.051Z,56.41
2018-09-29T11:55:40.803Z,56.36
2018-09-29T11:58:10.583Z,56.15
2018-09-29T12:00:40.727Z,55.21
2018-09-29T12:03:10.494Z,55.59
2018-09-29T12:05:40.307Z,55.98
2018-09-29T12:08:10.113Z,55.75
2018-09-29T12:10:39.963Z,56.43
2018-09-29T12:13:09.767Z,56.28
2018-09-29T12:15:39.571Z,55.74
2018-09-29T12:18:09.700Z,55.35
2018-09-29T12:20:39.601Z,55.94
2018-09-29T12:23:09.448Z,55.36
2018-09-29T12:25:39.284Z,54.43
2018-09-29T12:28:09.147Z,55.05
2018-09-29T12:30:38.954Z,53.93
2018-09-29T12:33:08.749Z,54.43
2018-09-29T12:35:38.571Z,54.36
2018-09-29T12:38:08.371Z,54.18
2018-09-29T12:40:38.159Z,54.22
2018-09-29T12:43:08.092Z,53.74
2018-09-29T12:45:37.899Z,54.02
2018-09-29T12:48:08.177Z,54.88
2018-09-29T12:50:37.967Z,54.03
2018-09-29T12:53:08.106Z,54.14
2018-09-29T12:55:37.991Z,54.68
2018-09-29T12:58:07.801Z,54.07
2018-09-29T13:00:37.645Z,54.30
2018-09-29T13:03:07.428Z,54.57
2018-09-29T13:05:39.102Z,53.93
2018-09-29T13:08:09.024Z,54.51
2018-09-29T13:10:38.815Z,54.05
2018-09-29T13:13:08.685Z,53.81
2018-09-29T13:15:38.486Z,54.06
2018-09-29T13:18:08.303Z,54.29
2018-09-29T13:20:38.084Z,54.37
2018-09-29T13:23:07.969Z,54.13
2018-09-29T13:25:37.790Z,53.20
2018-09-29T13:28:07.653Z,53.76
2018-09-29T13:30:37.504Z,53.32
2018-09-29T13:33:07.346Z,53.58
2018-09-29T13:35:37.656Z,53.95
2018-09-29T13:38:07.466Z,53.79
2018-09-29T13:40:37.470Z,53.69
2018-09-29T13:43:07.354Z,53.75
2018-09-29T13:45:37.190Z,53.27
2018-09-29T13:48:07.336Z,53.04
2018-09-29T13:50:37.186Z,53.02
2018-09-29T13:53:07.576Z,53.24
2018-09-29T13:55:37.409Z,53.75
2018-09-29T13:58:07.204Z,52.56
2018-09-29T14:00:37.028Z,53.97
2018-09-29T14:03:06.836Z,54.02
2018-09-29T14:05:36.642Z,53.77
2018-09-29T14:08:06.496Z,53.26
2018-09-29T14:10:36.384Z,53.14
2018-09-29T14:13:06.449Z,53.10
2018-09-29T14:15:36.706Z,52.99
2018-09-29T14:18:06.555Z,53.24
2018-09-29T14:20:36.366Z,53.16
2018-09-29T14:23:06.202Z,52.91
2018-09-29T14:25:35.991Z,53.16
2018-09-29T14:28:05.830Z,53.39
2018-09-29T14:30:35.711Z,52.65
2018-09-29T14:33:05.556Z,53.06
2018-09-29T14:35:35.412Z,53.07
2018-09-29T14:38:05.332Z,53.07
2018-09-29T14:40:35.206Z,53.00
2018-09-29T14:43:05.012Z,53.61
2018-09-29T14:45:34.828Z,53.38
2018-09-29T14:48:04.804Z,53.66
2018-09-29T14:50:34.646Z,52.83
2018-09-29T14:53:04.457Z,53.32
2018-09-29T14:55:34.239Z,53.16
2018-09-29T14:58:04.058Z,53.00
2018-09-29T15:00:33.978Z,53.75
2018-09-29T15:03:03.929Z,53.59
2018-09-29T15:05:33.724Z,53.63
2018-09-29T15:08:03.517Z,53.38
2018-09-29T15:10:33.378Z,53.48
2018-09-29T15:13:03.195Z,54.72
2018-09-29T15:15:32.981Z,53.96
2018-09-29T15:18:02.845Z,53.64
2018-09-29T15:20:32.664Z,53.56
2018-09-29T15:23:02.624Z,54.29
2018-09-29T15:25:32.514Z,54.50
2018-09-29T15:28:02.357Z,54.34
2018-09-29T15:30:32.172Z,54.41
2018-09-29T15:33:01.998Z,54.65
2018-09-29T15:35:32.003Z,54.54
2018-09-29T15:38:01.832Z,54.46
2018-09-29T15:40:31.633Z,54.87
2018-09-29T15:43:01.627Z,54.82
2018-09-29T15:45:31.657Z,55.29
2018-09-29T15:48:02.346Z,55.58
2018-09-29T15:50:32.241Z,55.62
2018-09-29T15:53:02.037Z,54.79
2018-09-29T15:57:00.918Z,55.51
2018-09-29T15:59:30.750Z,55.32
2018-09-29T16:02:00.661Z,56.06
2018-09-29T16:04:30.615Z,56.51
2018-09-29T16:07:00.463Z,55.81
2018-09-29T16:09:30.377Z,56.52
2018-09-29T16:12:00.225Z,56.29
2018-09-29T16:14:30.037Z,57.15
2018-09-29T16:16:59.841Z,56.91
2018-09-29T16:19:29.717Z,57.21
2018-09-29T16:21:59.616Z,57.75
2018-09-29T16:24:29.477Z,57.38
2018-09-29T16:26:59.407Z,58.17
2018-09-29T16:29:29.275Z,57.82
2018-09-29T16:31:59.112Z,58.62
2018-09-29T16:34:28.981Z,58.16
2018-09-29T16:36:58.875Z,58.26
2018-09-29T16:39:28.655Z,59.01
2018-09-29T16:41:58.443Z,58.93
2018-09-29T16:44:28.283Z,60.37
2018-09-29T16:46:58.121Z,59.78
2018-09-29T16:49:27.974Z,60.90
2018-09-29T16:51:57.931Z,60.93
2018-09-29T16:54:27.758Z,61.50
2018-09-29T16:56:57.675Z,60.30
2018-09-29T16:59:27.552Z,61.37
2018-09-29T17:01:57.381Z,61.17
2018-09-29T17:04:27.388Z,61.15
2018-09-29T17:06:57.327Z,61.62
2018-09-29T17:09:27.190Z,62.17
2018-09-29T17:11:57.105Z,61.83
2018-09-29T17:14:27.046Z,62.06
2018-09-29T17:16:56.892Z,61.96
2018-09-29T17:19:26.852Z,61.81
2018-09-29T17:21:57.550Z,62.04
2018-09-29T17:24:27.481Z,61.63
2018-09-29T17:26:57.327Z,62.31
2018-09-29T17:29:27.164Z,61.87
2018-09-29T17:31:57.136Z,62.30
2018-09-29T17:34:27.164Z,62.01
2018-09-29T17:36:57.114Z,62.04
2018-09-29T17:39:27.004Z,62.22
2018-09-29T17:41:56.871Z,62.23
2018-09-29T17:44:27.000Z,61.89
2018-09-29T17:46:56.944Z,61.93
2018-09-29T17:49:26.872Z,62.53
2018-09-29T17:51:57.350Z,62.73
2018-09-29T17:54:27.238Z,63.06
2018-09-29T17:56:57.293Z,63.38
2018-09-29T17:59:28.084Z,63.41
2018-09-29T18:01:58.057Z,63.53
2018-09-29T18:04:28.026Z,64.53
2018-09-29T18:06:58.110Z,64.03
2018-09-29T18:09:28.162Z,64.35
2018-09-29T18:11:58.102Z,64.71
2018-09-29T18:14:28.256Z,64.46
2018-09-29T18:16:58.502Z,64.82
2018-09-29T18:19:28.389Z,65.12
2018-09-29T18:21:58.873Z,64.18
2018-09-29T18:24:28.866Z,63.79
2018-09-29T18:26:58.746Z,64.22
2018-09-29T18:29:28.658Z,64.09
2018-09-29T18:31:58.594Z,64.27
2018-09-29T18:34:28.434Z,64.29
2018-09-29T18:36:58.323Z,64.66
2018-09-29T18:39:28.174Z,65.07
2018-09-29T18:41:58.018Z,64.56
2018-09-29T18:44:27.875Z,64.84
2018-09-29T18:46:57.716Z,65.51
2018-09-29T18:49:27.568Z,65.53
2018-09-29T18:51:57.439Z,65.41
2018-09-29T18:54:27.536Z,65.50
2018-09-29T18:56:57.380Z,65.00
2018-09-29T18:59:27.243Z,65.33
2018-09-29T19:01:57.127Z,64.87
2018-09-29T19:04:27.002Z,64.62
2018-09-29T19:06:56.996Z,64.08
2018-09-29T19:09:26.962Z,64.77
2018-09-29T19:11:57.557Z,64.72
2018-09-29T19:14:27.604Z,64.21
2018-09-29T19:16:57.536Z,64.21
2018-09-29T19:19:27.737Z,64.85
2018-09-29T19:21:57.887Z,64.46
2018-09-29T19:24:27.876Z,64.44
2018-09-29T19:26:57.771Z,64.43
2018-09-29T19:29:27.641Z,64.80
2018-09-29T19:31:57.523Z,64.70
2018-09-29T19:34:27.390Z,64.94
2018-09-29T19:36:57.995Z,64.74
2018-09-29T19:39:28.075Z,64.20
2018-09-29T19:41:57.953Z,64.45
2018-09-29T19:44:27.769Z,64.22
2018-09-29T19:46:57.565Z,64.50
2018-09-29T19:49:27.447Z,64.53
2018-09-29T19:51:57.362Z,64.93
2018-09-29T19:54:27.172Z,64.63
2018-09-29T19:56:57.059Z,65.23
2018-09-29T19:59:26.895Z,64.85
2018-09-29T20:01:56.759Z,64.38
2018-09-29T20:04:26.651Z,65.11
2018-09-29T20:06:56.580Z,65.29
2018-09-29T20:09:26.671Z,65.07
2018-09-29T20:11:56.506Z,65.49
2018-09-29T20:14:26.527Z,65.27
2018-09-29T20:16:56.446Z,65.33
2018-09-29T20:19:26.331Z,65.62
2018-09-29T20:21:57.097Z,65.57
2018-09-29T20:24:27.166Z,66.06
2018-09-29T20:26:57.069Z,66.00
2018-09-29T20:29:27.031Z,66.04
2018-09-29T20:31:56.921Z,65.92
2018-09-29T20:34:26.851Z,66.55
2018-09-29T20:36:56.713Z,66.82
2018-09-29T20:39:26.569Z,67.29
2018-09-29T20:41:57.129Z,67.80
2018-09-29T20:45:19.661Z,68.09
2018-09-29T20:47:49.948Z,68.60
2018-09-29T20:50:20.149Z,69.42
2018-09-29T20:52:50.207Z,70.44
2018-09-29T20:55:20.236Z,70.87
2018-09-29T20:57:50.337Z,71.42
2018-09-29T21:00:20.449Z,70.84
2018-09-29T21:02:50.438Z,70.81
2018-09-29T21:05:20.466Z,71.08
2018-09-29T21:07:50.468Z,71.40
2018-09-29T21:10:20.414Z,71.27
2018-09-29T21:12:50.352Z,71.39
2018-09-29T21:15:20.431Z,71.56
2018-09-29T21:17:50.330Z,71.55
2018-09-29T21:20:20.698Z,71.51
2018-09-29T21:22:50.550Z,72.01
2018-09-29T21:25:20.620Z,71.92
2018-09-29T21:27:50.525Z,71.56
2018-09-29T21:31:17.699Z,71.69
2018-09-29T21:33:47.583Z,71.96
2018-09-29T21:36:17.699Z,72.61
2018-09-29T21:38:47.737Z,72.14
2018-09-29T21:41:17.685Z,71.58
2018-09-29T21:56:53.199Z,71.66
2018-09-29T21:59:23.370Z,71.28
2018-09-29T22:01:53.251Z,71.21
2018-09-29T22:04:23.149Z,70.94
2018-09-29T22:06:53.379Z,70.86
2018-09-29T22:09:24.265Z,71.23
2018-09-29T22:11:54.401Z,71.04
2018-09-29T22:14:24.356Z,71.04
2018-09-29T22:16:54.238Z,71.14
2018-09-29T22:19:24.353Z,72.10
2018-09-29T22:21:54.697Z,72.39
2018-09-29T22:24:24.579Z,72.55
2018-09-29T22:26:54.485Z,72.77
2018-09-29T22:29:24.344Z,72.89
2018-09-29T22:31:54.315Z,72.91
2018-09-29T22:34:24.382Z,72.80
2018-09-29T22:36:54.338Z,72.77
2018-09-29T22:39:24.271Z,72.91
2018-09-29T22:41:54.086Z,73.10
2018-09-29T22:44:24.030Z,73.12
2018-09-29T22:46:54.032Z,72.99
2018-09-29T22:49:23.906Z,73.40
2018-09-29T22:51:53.808Z,72.31
2018-09-29T22:55:17.458Z,72.57
2018-09-29T22:57:47.360Z,72.91
2018-09-29T23:00:17.228Z,73.07
2018-09-29T23:02:47.070Z,73.10
2018-09-29T23:05:16.885Z,72.88
2018-09-29T23:11:23.878Z,73.01
2018-09-29T23:13:53.952Z,73.44
2018-09-29T23:16:24.014Z,73.44
2018-09-29T23:18:53.970Z,73.47
2018-09-29T23:21:24.089Z,73.58
2018-09-29T23:23:54.148Z,73.67
2018-09-29T23:26:24.078Z,73.44
2018-09-29T23:28:54.020Z,73.36
2018-09-29T23:31:23.914Z,73.50
2018-09-29T23:33:53.752Z,73.46
2018-09-29T23:36:23.770Z,72.60
2018-09-29T23:38:53.622Z,73.22
2018-09-29T23:41:23.548Z,73.28
2018-09-29T23:43:53.452Z,73.48
2018-09-29T23:46:23.342Z,72.89
2018-09-29T23:48:53.290Z,73.02
2018-09-29T23:51:23.278Z,72.79
2018-09-29T23:53:53.153Z,72.67
2018-09-29T23:56:23.235Z,72.99
2018-09-29T23:58:53.116Z,72.74
